sensor_id;sensor_type;location;lat;lon;timestamp;temperature;humidity
27747;DHT22;15138;51.012;4.692;2023-08-20T10:36:16;38.20;99.90
27747;DHT22;15138;51.012;4.692;2023-08-20T10:38:45;38.50;99.90
27747;DHT22;15138;51.012;4.692;2023-08-20T10:41:14;38.60;99.90
27747;DHT22;15138;51.012;4.692;2023-08-20T10:43:47;38.20;99.90
27747;DHT22;15138;51.012;4.692;2023-08-20T10:46:16;38.10;99.90
27747;DHT22;15138;51.012;4.692;2023-08-20T10:48:51;38.20;99.90
27747;DHT22;15138;51.012;4.692;2023-08-20T10:51:26;38.20;99.90
27747;DHT22;15138;51.012;4.692;2023-08-20T10:54:06;38.40;99.90
27747;DHT22;15138;51.012;4.692;2023-08-20T10:56:39;38.50;99.90
27747;DHT22;15138;51.012;4.692;2023-08-20T10:59:09;38.70;99.90
27747;DHT22;15138;51.012;4.692;2023-08-20T11:01:37;38.90;99.90
27747;DHT22;15138;51.012;4.692;2023-08-20T11:04:06;38.90;99.90
27747;DHT22;15138;51.012;4.692;2023-08-20T11:06:36;39.10;93.70
27747;DHT22;15138;51.012;4.692;2023-08-20T11:09:06;39.20;98.00
27747;DHT22;15138;51.012;4.692;2023-08-20T11:11:34;39.10;99.90
27747;DHT22;15138;51.012;4.692;2023-08-20T11:14:05;39.40;98.10
27747;DHT22;15138;51.012;4.692;2023-08-20T11:16:35;39.40;99.90
27747;DHT22;15138;51.012;4.692;2023-08-20T11:19:04;39.70;96.20
27747;DHT22;15138;51.012;4.692;2023-08-20T11:21:38;39.50;96.70
27747;DHT22;15138;51.012;4.692;2023-08-20T11:24:07;39.90;95.30
27747;DHT22;15138;51.012;4.692;2023-08-20T11:26:36;40.10;96.80
27747;DHT22;15138;51.012;4.692;2023-08-20T11:29:06;40.00;80.60
27747;DHT22;15138;51.012;4.692;2023-08-20T11:31:36;40.10;87.00
27747;DHT22;15138;51.012;4.692;2023-08-20T11:34:05;40.20;84.20
27747;DHT22;15138;51.012;4.692;2023-08-20T11:36:35;40.40;89.80
27747;DHT22;15138;51.012;4.692;2023-08-20T11:39:04;40.40;85.40
27747;DHT22;15138;51.012;4.692;2023-08-20T11:41:36;40.60;71.60
27747;DHT22;15138;51.012;4.692;2023-08-20T11:44:05;40.50;99.90
27747;DHT22;15138;51.012;4.692;2023-08-20T11:46:33;40.80;69.80
27747;DHT22;15138;51.012;4.692;2023-08-20T11:49:11;41.10;76.10
27747;DHT22;15138;51.012;4.692;2023-08-20T11:51:40;40.80;74.30
27747;DHT22;15138;51.012;4.692;2023-08-20T11:54:11;40.60;65.10
27747;DHT22;15138;51.012;4.692;2023-08-20T11:56:43;39.90;66.20
27747;DHT22;15138;51.012;4.692;2023-08-20T11:59:12;40.30;65.50
27747;DHT22;15138;51.012;4.692;2023-08-20T12:01:41;40.50;63.50
27747;DHT22;15138;51.012;4.692;2023-08-20T12:04:10;40.50;62.60
27747;DHT22;15138;51.012;4.692;2023-08-20T12:06:38;40.60;47.80
27747;DHT22;15138;51.012;4.692;2023-08-20T12:09:23;40.40;54.00
27747;DHT22;15138;51.012;4.692;2023-08-20T12:11:52;40.30;50.50
27747;DHT22;15138;51.012;4.692;2023-08-20T12:14:23;40.40;53.30
27747;DHT22;15138;51.012;4.692;2023-08-20T12:16:51;40.60;43.70
27747;DHT22;15138;51.012;4.692;2023-08-20T12:19:21;40.20;37.70
27747;DHT22;15138;51.012;4.692;2023-08-20T12:21:50;40.70;43.10
27747;DHT22;15138;51.012;4.692;2023-08-20T12:24:18;39.20;32.70
27747;DHT22;15138;51.012;4.692;2023-08-20T12:26:49;39.20;32.40
27747;DHT22;15138;51.012;4.692;2023-08-20T12:29:18;40.00;43.20
27747;DHT22;15138;51.012;4.692;2023-08-20T12:31:46;40.10;45.00
27747;DHT22;15138;51.012;4.692;2023-08-20T12:34:15;40.50;57.20
27747;DHT22;15138;51.012;4.692;2023-08-20T12:36:43;41.00;37.70
27747;DHT22;15138;51.012;4.692;2023-08-20T12:39:11;40.70;33.60
27747;DHT22;15138;51.012;4.692;2023-08-20T12:41:41;40.70;37.40
27747;DHT22;15138;51.012;4.692;2023-08-20T12:44:11;40.90;39.10
27747;DHT22;15138;51.012;4.692;2023-08-20T12:46:39;40.80;30.30
27747;DHT22;15138;51.012;4.692;2023-08-20T12:49:07;40.70;41.80
27747;DHT22;15138;51.012;4.692;2023-08-20T12:51:35;40.90;39.50
27747;DHT22;15138;51.012;4.692;2023-08-20T12:54:04;40.40;36.20
27747;DHT22;15138;51.012;4.692;2023-08-20T12:56:32;40.70;40.10
27747;DHT22;15138;51.012;4.692;2023-08-20T12:59:00;40.70;36.30
27747;DHT22;15138;51.012;4.692;2023-08-20T13:01:30;40.80;33.70
27747;DHT22;15138;51.012;4.692;2023-08-20T13:03:59;40.80;37.20
27747;DHT22;15138;51.012;4.692;2023-08-20T13:06:28;40.20;35.50
27747;DHT22;15138;51.012;4.692;2023-08-20T13:08:56;40.60;35.10
27747;DHT22;15138;51.012;4.692;2023-08-20T13:11:25;40.70;33.30
27747;DHT22;15138;51.012;4.692;2023-08-20T13:13:57;40.90;31.70
27747;DHT22;15138;51.012;4.692;2023-08-20T13:16:26;41.00;31.50
27747;DHT22;15138;51.012;4.692;2023-08-20T13:18:58;41.10;32.30
27747;DHT22;15138;51.012;4.692;2023-08-20T13:21:26;41.20;28.50
27747;DHT22;15138;51.012;4.692;2023-08-20T13:23:54;41.20;24.30
27747;DHT22;15138;51.012;4.692;2023-08-20T13:26:22;41.30;23.50
27747;DHT22;15138;51.012;4.692;2023-08-20T13:28:50;41.30;19.70
27747;DHT22;15138;51.012;4.692;2023-08-20T13:31:18;41.10;19.90
27747;DHT22;15138;51.012;4.692;2023-08-20T13:33:46;41.20;37.10
27747;DHT22;15138;51.012;4.692;2023-08-20T13:36:17;41.30;22.40
27747;DHT22;15138;51.012;4.692;2023-08-20T13:38:45;41.30;18.00
27747;DHT22;15138;51.012;4.692;2023-08-20T13:41:14;41.20;16.40
27747;DHT22;15138;51.012;4.692;2023-08-20T13:43:42;41.40;17.50
27747;DHT22;15138;51.012;4.692;2023-08-20T13:46:10;41.00;17.20
27747;DHT22;15138;51.012;4.692;2023-08-20T13:48:38;40.90;31.40
27747;DHT22;15138;51.012;4.692;2023-08-20T13:51:06;40.90;14.70
27747;DHT22;15138;51.012;4.692;2023-08-20T13:53:36;40.60;12.80
27747;DHT22;15138;51.012;4.692;2023-08-20T13:56:04;40.60;10.60
27747;DHT22;15138;51.012;4.692;2023-08-20T13:58:32;40.80;16.90
27747;DHT22;15138;51.012;4.692;2023-08-20T14:01:00;40.10;21.10
27747;DHT22;15138;51.012;4.692;2023-08-20T14:03:29;39.30;9.10
27747;DHT22;15138;51.012;4.692;2023-08-20T14:05:57;39.80;19.30
27747;DHT22;15138;51.012;4.692;2023-08-20T14:08:25;40.30;18.10
27747;DHT22;15138;51.012;4.692;2023-08-20T14:10:54;39.60;14.20
27747;DHT22;15138;51.012;4.692;2023-08-20T14:13:22;39.70;9.50
27747;DHT22;15138;51.012;4.692;2023-08-20T14:15:51;39.90;17.50
27747;DHT22;15138;51.012;4.692;2023-08-20T14:18:19;40.20;17.90
27747;DHT22;15138;51.012;4.692;2023-08-20T14:20:47;40.10;28.80
27747;DHT22;15138;51.012;4.692;2023-08-20T14:23:15;40.10;22.00
27747;DHT22;15138;51.012;4.692;2023-08-20T14:25:44;40.10;20.90
27747;DHT22;15138;51.012;4.692;2023-08-20T14:28:13;39.70;13.40
27747;DHT22;15138;51.012;4.692;2023-08-20T14:30:41;39.60;14.50
27747;DHT22;15138;51.012;4.692;2023-08-20T14:33:09;39.70;17.10
27747;DHT22;15138;51.012;4.692;2023-08-20T14:35:38;39.70;16.10
27747;DHT22;15138;51.012;4.692;2023-08-20T14:38:06;39.60;17.50
27747;DHT22;15138;51.012;4.692;2023-08-20T14:40:37;39.50;16.00
27747;DHT22;15138;51.012;4.692;2023-08-20T14:43:06;39.70;15.70
27747;DHT22;15138;51.012;4.692;2023-08-20T14:45:36;39.40;9.40
27747;DHT22;15138;51.012;4.692;2023-08-20T14:48:04;39.30;14.60
27747;DHT22;15138;51.012;4.692;2023-08-20T14:50:32;39.00;12.40
27747;DHT22;15138;51.012;4.692;2023-08-20T14:53:01;39.20;14.50
27747;DHT22;15138;51.012;4.692;2023-08-20T14:55:29;39.30;16.90
27747;DHT22;15138;51.012;4.692;2023-08-20T14:57:57;38.90;14.80
27747;DHT22;15138;51.012;4.692;2023-08-20T15:00:26;38.80;16.30
27747;DHT22;15138;51.012;4.692;2023-08-20T15:02:55;38.80;16.40
27747;DHT22;15138;51.012;4.692;2023-08-20T15:05:23;38.90;16.70
27747;DHT22;15138;51.012;4.692;2023-08-20T15:07:52;38.40;17.30
27747;DHT22;15138;51.012;4.692;2023-08-20T15:10:20;38.00;13.90
27747;DHT22;15138;51.012;4.692;2023-08-20T15:12:48;37.70;17.10
27747;DHT22;15138;51.012;4.692;2023-08-20T15:15:16;37.30;14.60
27747;DHT22;15138;51.012;4.692;2023-08-20T15:17:44;36.90;12.60
27747;DHT22;15138;51.012;4.692;2023-08-20T15:20:14;36.90;12.30
27747;DHT22;15138;51.012;4.692;2023-08-20T15:22:42;37.00;13.80
27747;DHT22;15138;51.012;4.692;2023-08-20T15:25:11;36.60;12.50
27747;DHT22;15138;51.012;4.692;2023-08-20T15:27:39;36.40;18.10
27747;DHT22;15138;51.012;4.692;2023-08-20T15:30:08;36.20;19.10
27747;DHT22;15138;51.012;4.692;2023-08-20T15:32:36;36.50;21.30
27747;DHT22;15138;51.012;4.692;2023-08-20T15:35:05;36.00;18.10
27747;DHT22;15138;51.012;4.692;2023-08-20T15:37:35;35.80;17.60
27747;DHT22;15138;51.012;4.692;2023-08-20T15:40:05;35.10;16.90
27747;DHT22;15138;51.012;4.692;2023-08-20T15:42:40;34.80;18.10
27747;DHT22;15138;51.012;4.692;2023-08-20T15:45:09;34.50;19.10
27747;DHT22;15138;51.012;4.692;2023-08-20T15:47:37;34.30;21.20
27747;DHT22;15138;51.012;4.692;2023-08-20T15:50:06;34.50;24.60
27747;DHT22;15138;51.012;4.692;2023-08-20T15:52:36;34.80;25.10
27747;DHT22;15138;51.012;4.692;2023-08-20T15:55:05;35.00;24.20
27747;DHT22;15138;51.012;4.692;2023-08-20T15:57:33;35.20;23.80
27747;DHT22;15138;51.012;4.692;2023-08-20T16:00:03;35.20;23.50
27747;DHT22;15138;51.012;4.692;2023-08-20T16:02:31;35.40;29.30
27747;DHT22;15138;51.012;4.692;2023-08-20T16:05:00;35.00;26.60
27747;DHT22;15138;51.012;4.692;2023-08-20T16:07:33;34.60;33.60
27747;DHT22;15138;51.012;4.692;2023-08-20T16:10:03;34.40;23.00
27747;DHT22;15138;51.012;4.692;2023-08-20T16:12:32;34.70;24.40
27747;DHT22;15138;51.012;4.692;2023-08-20T16:15:00;34.60;28.60
27747;DHT22;15138;51.012;4.692;2023-08-20T16:17:30;34.60;27.80
27747;DHT22;15138;51.012;4.692;2023-08-20T16:19:59;34.50;27.20
27747;DHT22;15138;51.012;4.692;2023-08-20T16:22:27;34.40;27.80
27747;DHT22;15138;51.012;4.692;2023-08-20T16:24:55;34.20;30.70
27747;DHT22;15138;51.012;4.692;2023-08-20T16:27:25;34.00;28.90
27747;DHT22;15138;51.012;4.692;2023-08-20T16:29:53;33.80;29.30
27747;DHT22;15138;51.012;4.692;2023-08-20T16:32:22;33.90;29.20
27747;DHT22;15138;51.012;4.692;2023-08-20T16:34:50;33.80;31.60
27747;DHT22;15138;51.012;4.692;2023-08-20T16:37:18;33.70;31.70
27747;DHT22;15138;51.012;4.692;2023-08-20T16:39:47;33.70;29.40
27747;DHT22;15138;51.012;4.692;2023-08-20T16:42:15;33.60;29.10
27747;DHT22;15138;51.012;4.692;2023-08-20T16:44:44;33.20;28.60
27747;DHT22;15138;51.012;4.692;2023-08-20T16:47:15;33.20;30.10
27747;DHT22;15138;51.012;4.692;2023-08-20T16:49:43;33.10;28.80
27747;DHT22;15138;51.012;4.692;2023-08-20T16:52:11;32.90;30.40
27747;DHT22;15138;51.012;4.692;2023-08-20T16:54:39;32.70;31.40
27747;DHT22;15138;51.012;4.692;2023-08-20T16:57:07;32.70;30.30
27747;DHT22;15138;51.012;4.692;2023-08-20T17:02:06;32.30;20.50
27747;DHT22;15138;51.012;4.692;2023-08-20T17:04:34;32.20;33.20
27747;DHT22;15138;51.012;4.692;2023-08-20T17:07:02;32.00;31.70
27747;DHT22;15138;51.012;4.692;2023-08-20T17:09:30;31.80;33.80
27747;DHT22;15138;51.012;4.692;2023-08-20T17:11:59;31.80;33.50
27747;DHT22;15138;51.012;4.692;2023-08-20T17:14:27;31.80;35.00
27747;DHT22;15138;51.012;4.692;2023-08-20T17:16:56;31.60;34.40
27747;DHT22;15138;51.012;4.692;2023-08-20T17:19:26;31.70;34.00
27747;DHT22;15138;51.012;4.692;2023-08-20T17:21:54;31.70;33.60
27747;DHT22;15138;51.012;4.692;2023-08-20T17:24:23;31.70;38.20
27747;DHT22;15138;51.012;4.692;2023-08-20T17:26:51;31.60;38.70
27747;DHT22;15138;51.012;4.692;2023-08-20T17:29:19;31.60;39.80
27747;DHT22;15138;51.012;4.692;2023-08-20T17:31:48;31.40;41.10
27747;DHT22;15138;51.012;4.692;2023-08-20T17:34:16;31.30;41.50
27747;DHT22;15138;51.012;4.692;2023-08-20T17:36:45;31.10;42.80
27747;DHT22;15138;51.012;4.692;2023-08-20T17:39:14;30.70;41.70
27747;DHT22;15138;51.012;4.692;2023-08-20T17:41:42;30.70;32.40
27747;DHT22;15138;51.012;4.692;2023-08-20T17:44:10;30.70;30.20
27747;DHT22;15138;51.012;4.692;2023-08-20T17:46:42;30.30;30.80
27747;DHT22;15138;51.012;4.692;2023-08-20T17:49:11;30.20;31.70
27747;DHT22;15138;51.012;4.692;2023-08-20T17:51:40;30.10;30.50
27747;DHT22;15138;51.012;4.692;2023-08-20T17:54:09;30.00;31.00
27747;DHT22;15138;51.012;4.692;2023-08-20T17:56:37;29.90;33.90
27747;DHT22;15138;51.012;4.692;2023-08-20T17:59:07;29.90;33.80
27747;DHT22;15138;51.012;4.692;2023-08-20T18:01:36;29.70;30.00
27747;DHT22;15138;51.012;4.692;2023-08-20T18:04:04;29.60;29.30
27747;DHT22;15138;51.012;4.692;2023-08-20T18:06:32;29.40;32.10
27747;DHT22;15138;51.012;4.692;2023-08-20T18:09:01;29.40;34.30
27747;DHT22;15138;51.012;4.692;2023-08-20T18:11:30;29.30;32.70
27747;DHT22;15138;51.012;4.692;2023-08-20T18:13:58;29.30;34.90
27747;DHT22;15138;51.012;4.692;2023-08-20T18:16:27;29.10;35.70
27747;DHT22;15138;51.012;4.692;2023-08-20T18:18:55;29.00;33.50
27747;DHT22;15138;51.012;4.692;2023-08-20T18:21:23;28.80;32.80
27747;DHT22;15138;51.012;4.692;2023-08-20T18:23:52;28.50;33.90
27747;DHT22;15138;51.012;4.692;2023-08-20T18:26:20;28.60;36.40
27747;DHT22;15138;51.012;4.692;2023-08-20T18:28:50;28.50;39.80
27747;DHT22;15138;51.012;4.692;2023-08-20T18:31:18;28.40;38.90
27747;DHT22;15138;51.012;4.692;2023-08-20T18:33:46;28.30;42.70
27747;DHT22;15138;51.012;4.692;2023-08-20T18:36:14;28.30;38.00
27747;DHT22;15138;51.012;4.692;2023-08-20T18:38:42;28.30;37.00
27747;DHT22;15138;51.012;4.692;2023-08-20T18:41:11;28.20;20.00
27747;DHT22;15138;51.012;4.692;2023-08-20T18:43:41;28.10;43.10
27747;DHT22;15138;51.012;4.692;2023-08-20T18:46:10;27.80;42.70
27747;DHT22;15138;51.012;4.692;2023-08-20T18:48:39;27.70;45.00
27747;DHT22;15138;51.012;4.692;2023-08-20T18:51:07;27.70;43.30
27747;DHT22;15138;51.012;4.692;2023-08-20T18:53:35;27.60;42.80
27747;DHT22;15138;51.012;4.692;2023-08-20T18:56:03;27.40;46.10
27747;DHT22;15138;51.012;4.692;2023-08-20T18:58:33;27.50;43.80
27747;DHT22;15138;51.012;4.692;2023-08-20T19:01:02;27.40;47.30
27747;DHT22;15138;51.012;4.692;2023-08-20T19:03:31;27.30;50.70
27747;DHT22;15138;51.012;4.692;2023-08-20T19:05:59;27.20;48.10
27747;DHT22;15138;51.012;4.692;2023-08-20T19:08:28;27.10;52.10
27747;DHT22;15138;51.012;4.692;2023-08-20T19:10:59;27.10;49.60
27747;DHT22;15138;51.012;4.692;2023-08-20T19:13:27;26.90;53.00
27747;DHT22;15138;51.012;4.692;2023-08-20T19:15:56;26.70;59.00
27747;DHT22;15138;51.012;4.692;2023-08-20T19:18:24;26.70;99.90
27747;DHT22;15138;51.012;4.692;2023-08-20T19:20:54;26.70;1.00
27747;DHT22;15138;51.012;4.692;2023-08-20T19:23:22;26.50;61.40
27747;DHT22;15138;51.012;4.692;2023-08-20T19:25:50;26.60;99.90
27747;DHT22;15138;51.012;4.692;2023-08-20T19:28:18;26.50;99.90
27747;DHT22;15138;51.012;4.692;2023-08-20T19:30:48;26.30;61.00
27747;DHT22;15138;51.012;4.692;2023-08-20T19:33:17;26.30;57.10
27747;DHT22;15138;51.012;4.692;2023-08-20T19:35:45;26.20;63.10
27747;DHT22;15138;51.012;4.692;2023-08-20T19:38:15;26.10;58.80
27747;DHT22;15138;51.012;4.692;2023-08-20T19:40:45;26.20;57.20
27747;DHT22;15138;51.012;4.692;2023-08-20T19:43:14;26.00;63.40
27747;DHT22;15138;51.012;4.692;2023-08-20T19:45:42;25.90;99.90
27747;DHT22;15138;51.012;4.692;2023-08-20T19:48:11;26.10;99.90
27747;DHT22;15138;51.012;4.692;2023-08-20T19:50:40;26.10;99.90
27747;DHT22;15138;51.012;4.692;2023-08-20T19:53:11;25.90;94.20
27747;DHT22;15138;51.012;4.692;2023-08-20T19:58:09;25.80;1.00
27747;DHT22;15138;51.012;4.692;2023-08-20T20:00:37;25.80;40.90
27747;DHT22;15138;51.012;4.692;2023-08-20T20:03:05;25.70;99.90
27747;DHT22;15138;51.012;4.692;2023-08-20T20:18:05;25.30;1.00
27747;DHT22;15138;51.012;4.692;2023-08-20T20:20:33;25.20;78.20
27747;DHT22;15138;51.012;4.692;2023-08-20T20:23:02;25.10;75.20
27747;DHT22;15138;51.012;4.692;2023-08-20T20:28:01;25.00;99.90
27747;DHT22;15138;51.012;4.692;2023-08-20T20:32:59;24.90;65.30
27747;DHT22;15138;51.012;4.692;2023-08-20T20:35:29;24.90;87.10
27747;DHT22;15138;51.012;4.692;2023-08-20T20:37:57;24.70;99.90
27747;DHT22;15138;51.012;4.692;2023-08-20T20:40:25;24.70;90.30
27747;DHT22;15138;51.012;4.692;2023-08-20T20:42:54;24.60;90.80
27747;DHT22;15138;51.012;4.692;2023-08-20T20:52:51;24.50;77.70
27747;DHT22;15138;51.012;4.692;2023-08-20T20:55:19;24.50;92.90
27747;DHT22;15138;51.012;4.692;2023-08-20T20:57:47;24.50;87.50
27747;DHT22;15138;51.012;4.692;2023-08-20T21:00:15;24.40;93.10
27747;DHT22;15138;51.012;4.692;2023-08-20T21:02:44;24.40;91.70
27747;DHT22;15138;51.012;4.692;2023-08-20T21:05:14;24.30;96.80
27747;DHT22;15138;51.012;4.692;2023-08-20T21:07:43;24.30;96.50
27747;DHT22;15138;51.012;4.692;2023-08-20T21:10:11;24.20;98.10
27747;DHT22;15138;51.012;4.692;2023-08-20T21:12:39;24.20;97.30
27747;DHT22;15138;51.012;4.692;2023-08-20T21:15:08;24.20;97.00
27747;DHT22;15138;51.012;4.692;2023-08-20T21:17:36;24.10;97.80
27747;DHT22;15138;51.012;4.692;2023-08-20T21:20:06;24.10;96.40
27747;DHT22;15138;51.012;4.692;2023-08-20T21:22:35;24.10;95.40
27747;DHT22;15138;51.012;4.692;2023-08-20T21:25:05;24.10;97.90
27747;DHT22;15138;51.012;4.692;2023-08-20T21:27:33;24.10;99.00
27747;DHT22;15138;51.012;4.692;2023-08-20T21:30:01;24.10;99.80
27747;DHT22;15138;51.012;4.692;2023-08-20T21:32:29;24.00;99.90
27747;DHT22;15138;51.012;4.692;2023-08-20T21:34:57;24.00;99.90
27747;DHT22;15138;51.012;4.692;2023-08-20T21:37:25;24.00;99.90
27747;DHT22;15138;51.012;4.692;2023-08-20T21:39:55;23.80;99.90
27747;DHT22;15138;51.012;4.692;2023-08-20T21:42:25;23.80;99.90
27747;DHT22;15138;51.012;4.692;2023-08-20T21:44:53;23.80;99.90
27747;DHT22;15138;51.012;4.692;2023-08-20T21:47:23;23.80;99.40
27747;DHT22;15138;51.012;4.692;2023-08-20T21:49:52;23.80;99.90
27747;DHT22;15138;51.012;4.692;2023-08-20T21:52:20;23.70;99.90
27747;DHT22;15138;51.012;4.692;2023-08-20T21:54:50;23.70;99.90
27747;DHT22;15138;51.012;4.692;2023-08-20T21:57:21;23.70;99.90
27747;DHT22;15138;51.012;4.692;2023-08-20T21:59:51;23.70;99.90
27747;DHT22;15138;51.012;4.692;2023-08-20T22:02:19;23.60;99.90
27747;DHT22;15138;51.012;4.692;2023-08-20T22:04:48;23.60;99.90
27747;DHT22;15138;51.012;4.692;2023-08-20T22:07:16;23.70;99.90
27747;DHT22;15138;51.012;4.692;2023-08-20T22:09:44;23.70;99.90
27747;DHT22;15138;51.012;4.692;2023-08-20T22:12:12;23.60;99.90
27747;DHT22;15138;51.012;4.692;2023-08-20T22:14:42;23.60;99.90
27747;DHT22;15138;51.012;4.692;2023-08-20T22:17:13;23.60;99.90
27747;DHT22;15138;51.012;4.692;2023-08-20T22:19:41;23.50;99.90
27747;DHT22;15138;51.012;4.692;2023-08-20T22:22:10;23.40;99.90
27747;DHT22;15138;51.012;4.692;2023-08-20T22:24:38;23.40;99.90
27747;DHT22;15138;51.012;4.692;2023-08-20T22:27:06;23.30;99.90
27747;DHT22;15138;51.012;4.692;2023-08-20T22:29:34;23.20;99.90
27747;DHT22;15138;51.012;4.692;2023-08-20T22:32:04;23.20;99.90
27747;DHT22;15138;51.012;4.692;2023-08-20T22:34:32;23.20;99.90
27747;DHT22;15138;51.012;4.692;2023-08-20T22:37:00;23.10;99.90
27747;DHT22;15138;51.012;4.692;2023-08-20T22:39:29;23.00;99.90
27747;DHT22;15138;51.012;4.692;2023-08-20T22:41:57;23.00;99.90
27747;DHT22;15138;51.012;4.692;2023-08-20T22:44:25;22.80;99.90
27747;DHT22;15138;51.012;4.692;2023-08-20T22:49:24;22.70;99.90
27747;DHT22;15138;51.012;4.692;2023-08-20T22:51:52;22.70;99.90
27747;DHT22;15138;51.012;4.692;2023-08-20T22:54:20;22.70;99.90
27747;DHT22;15138;51.012;4.692;2023-08-20T22:56:48;22.70;99.90
27747;DHT22;15138;51.012;4.692;2023-08-20T22:59:16;22.60;99.90
27747;DHT22;15138;51.012;4.692;2023-08-20T23:04:14;22.50;99.90
27747;DHT22;15138;51.012;4.692;2023-08-20T23:06:43;22.50;99.90
27747;DHT22;15138;51.012;4.692;2023-08-20T23:09:11;22.50;99.90
27747;DHT22;15138;51.012;4.692;2023-08-20T23:11:40;22.50;99.90
27747;DHT22;15138;51.012;4.692;2023-08-20T23:14:08;22.40;99.90
27747;DHT22;15138;51.012;4.692;2023-08-20T23:16:36;22.40;99.90
27747;DHT22;15138;51.012;4.692;2023-08-20T23:19:04;22.30;99.90
27747;DHT22;15138;51.012;4.692;2023-08-20T23:21:32;22.20;99.90
27747;DHT22;15138;51.012;4.692;2023-08-20T23:24:02;22.20;99.90
27747;DHT22;15138;51.012;4.692;2023-08-20T23:26:30;22.20;99.90
27747;DHT22;15138;51.012;4.692;2023-08-20T23:28:59;22.20;99.90
27747;DHT22;15138;51.012;4.692;2023-08-20T23:31:31;22.20;99.90
27747;DHT22;15138;51.012;4.692;2023-08-20T23:33:59;22.10;99.90
27747;DHT22;15138;51.012;4.692;2023-08-20T23:36:27;22.00;99.90
27747;DHT22;15138;51.012;4.692;2023-08-20T23:38:55;22.00;99.90
27747;DHT22;15138;51.012;4.692;2023-08-20T23:41:25;21.90;99.90
27747;DHT22;15138;51.012;4.692;2023-08-20T23:43:53;21.90;99.90
27747;DHT22;15138;51.012;4.692;2023-08-20T23:46:21;21.90;99.90
27747;DHT22;15138;51.012;4.692;2023-08-20T23:49:08;21.90;99.90
27747;DHT22;15138;51.012;4.692;2023-08-20T23:51:36;21.80;99.90
27747;DHT22;15138;51.012;4.692;2023-08-20T23:54:05;21.80;99.90
27747;DHT22;15138;51.012;4.692;2023-08-20T23:59:03;21.70;99.90
